KPZQ METAR Reports


Rogers City, Presque Isle County Airport, MI, United States (KPZQ) 45-24-25N 083-48-46W
Mar 28, 2020 - 07:15 PM EDT / 2020.03.28 2315 UTC
Wind: from the E (080 degrees) at 5 MPH (4 KT):0
Visibility: 10 mile(s):0
Sky conditions: overcast
Temperature: 39.7 F (4.3 C)
Dew Point: 31.5 F (-0.3 C)
Relative Humidity: 71%
Pressure (altimeter): 29.93 in. Hg (1013 hPa)
ob: KPZQ 282315Z AUTO 08004KT 10SM OVC041 04/00 A2993 RMK AO2 T00431003
cycle: 23

 

Rogers City METAR Meteogram

Weather Chart

Nearby METAR Reports

KPZQ - Rogers City, Michigan, USA
Distance from station: SSW 1mi, 2km
Updated: Sat, 28-Mar-2020 7:15pm EDT
Overcast
Overcast
 Wind from E
Wind: E 5 mph , 7 km/h
Temperature: 39°F , 4°C
Wind Chill: 35°F , 2°C
Dew Point: 32°F , 0°C
Humidity: 75%
Barometer: 29.93 inHg , 1013.5 hPa
Clouds: Overcast
Visibility: 10 miles , 16 km
Cloud details: Overcast 4100 ft
2020/03/28 23:15 KPZQ 282315Z AUTO 08004KT 10SM OVC041 04/00 A2993 RMK AO2 T00431003
KAPN - Alpena, Michigan, USA
Distance from station: SSE 27mi, 43km
Updated: Sat, 28-Mar-2020 6:54pm EDT
NOT Current
Overcast
Overcast
 Wind from E
Wind: E 6 mph , 9 km/h
Temperature: 43°F , 6°C
Wind Chill: 39°F , 4°C
Dew Point: 27°F , -3°C
Humidity: 53%
Barometer: 29.92 inHg , 1013.2 hPa
Clouds: Overcast
Visibility: 10 miles , 16 km
Cloud details: Overcast 4700 ft
2020/03/28 22:54 KAPN 282254Z AUTO 10005KT 10SM OVC047 06/M03 A2992 RMK AO2 SLP139 T00561028
 
KSLH - Cheboygan, Michigan, USA
Distance from station: WNW 38mi, 61km
Updated: Sat, 28-Mar-2020 7:15pm EDT
Overcast
Overcast
 Wind from ENE
Wind: ENE 5 mph , 7 km/h
Temperature: 37°F , 3°C
Wind Chill: 33°F , 1°C
Dew Point: 32°F , 0°C
Humidity: 81%
Barometer: 29.91 inHg , 1012.9 hPa
Clouds: Overcast
Visibility: 10 miles , 16 km
Cloud details: Overcast 3800 ft
2020/03/28 23:15 KSLH 282315Z AUTO 07004KT 10SM OVC038 03/00 A2991 RMK AO2 T00300000
KDRM - Drummond Is, Michigan, USA
Distance from station: N 40mi, 65km
Updated: Sat, 28-Mar-2020 7:15pm EDT
Overcast
Overcast
 Wind from calm
Wind: Calm
Temperature: 45°F , 7°C
Dew Point: 25°F , -4°C
Humidity: 46%
Barometer: 29.93 inHg , 1013.5 hPa
Clouds: Overcast
Visibility: 10 miles , 16 km
Cloud details: Overcast 5000 ft
2020/03/28 23:15 KDRM 282315Z AUTO 00000KT 10SM OVC050 07/M04 A2993 RMK AO2 T00681045
 
KPLN - Pellston, Michigan, USA
Distance from station: WNW 49mi, 79km
Updated: Sat, 28-Mar-2020 6:54pm EDT
NOT Current
Overcast
Overcast
 Wind from E
Wind: E 8 mph , 13 km/h
Temperature: 43°F , 6°C
Wind Chill: 38°F , 3°C
Dew Point: 30°F , -1°C
Humidity: 61%
Barometer: 29.91 inHg , 1012.9 hPa
Clouds: Overcast
Visibility: 10 miles , 16 km
Cloud details: Mostly cloudy 3400 ft
Overcast 4200 ft
2020/03/28 22:54 KPLN 282254Z AUTO 08007KT 10SM BKN034 OVC042 06/M01 A2991 RMK AO2 SLP134 T00611011
KMCD - Mackinac Island, Michigan, USA
Distance from station: NW 50mi, 80km
Updated: Sat, 28-Mar-2020 7:15pm EDT
Overcast
Overcast
 Wind from E
Wind: E 12 mph , 19 km/h
Temperature: 41°F , 5°C
Wind Chill: 34°F , 1°C
Dew Point: 30°F , -1°C
Humidity: 66%
Barometer: 29.92 inHg , 1013.2 hPa
Clouds: Overcast
Visibility: 10 miles , 16 km
Cloud details: Mostly cloudy 4200 ft
Overcast 6000 ft
2020/03/28 23:15 KMCD 282315Z AUTO 09010KT 10SM BKN042 OVC060 05/M01 A2992 RMK AO2 T00501008